HVN2 VVTS-KSFO
Flight info
| Callsign | HVN2 |
|---|---|
| Flight time | N/A |
| Altitude | 35000 |
| Route | BIXEX5C/25L BIXEX W15 CRA Q15 MESOX/N0507F350 L628 ARESI L625 MEVIN B462 KAZIK Y59 AZAMA Y57 YULIA/N0494F370 Y57 POROT Y809 IDLAN Y812 ADNAP OTR7 EMRON DCT 41N160E 44N170E 45N180E/N0496F390 46N170W 47N160W 48N150W 46N140W/N0491F410 42N130W DCT VESPA DCT AMAKR BDEGA4 |
| Aircraft | B78X/H-SDE1E2E3FGHIJ2J3J4J5M1RWXY/LB1D1 |
Departure
| Time | 2026-05-07 14:19 |
|---|---|
| Airport | Tan Son Nhat International Airport (VVTS) |
Arrival
| Time | N/A |
|---|---|
| Airport | San Francisco International Airport (KSFO) |
| Time | Latitude | Longitude | Altitude | Speed | Heading |
|---|---|---|---|---|---|
| 2026-05-07 13:49 | 10.81709 | 106.66247 | 43 ft | 0 kts | 158° |
| 2026-05-07 14:09 | 10.81726 | 106.66240 | 40 ft | 4 kts | 158° |
| 2026-05-07 14:10 | 10.81751 | 106.66230 | 39 ft | 4 kts | 158° |
| 2026-05-07 14:10 | 10.81772 | 106.66221 | 39 ft | 4 kts | 143° |
| 2026-05-07 14:10 | 10.81786 | 106.66208 | 38 ft | 4 kts | 103° |
| 2026-05-07 14:10 | 10.81788 | 106.66184 | 38 ft | 4 kts | 77° |
| 2026-05-07 14:11 | 10.81782 | 106.66161 | 25 ft | 1 kts | 70° |
| 2026-05-07 14:11 | 10.81781 | 106.66160 | 24 ft | 1 kts | 70° |
| 2026-05-07 14:14 | 10.81783 | 106.66164 | 27 ft | 2 kts | 70° |
| 2026-05-07 14:14 | 10.81795 | 106.66196 | 23 ft | 7 kts | 69° |
| 2026-05-07 14:14 | 10.81817 | 106.66254 | 45 ft | 11 kts | 70° |
| 2026-05-07 14:14 | 10.81848 | 106.66336 | 42 ft | 14 kts | 70° |
| 2026-05-07 14:15 | 10.81889 | 106.66443 | 42 ft | 17 kts | 63° |
| 2026-05-07 14:15 | 10.81936 | 106.66568 | 42 ft | 21 kts | 68° |
| 2026-05-07 14:15 | 10.81993 | 106.66717 | 42 ft | 24 kts | 69° |
| 2026-05-07 14:15 | 10.82051 | 106.66859 | 42 ft | 12 kts | 59° |
| 2026-05-07 14:16 | 10.82104 | 106.66920 | 42 ft | 11 kts | 42° |
| 2026-05-07 14:16 | 10.82160 | 106.66967 | 42 ft | 10 kts | 39° |
| 2026-05-07 14:16 | 10.82210 | 106.67001 | 42 ft | 7 kts | 19° |
| 2026-05-07 14:16 | 10.82248 | 106.67004 | 42 ft | 6 kts | 356° |
| 2026-05-07 14:17 | 10.82290 | 106.66991 | 41 ft | 6 kts | 336° |
| 2026-05-07 14:17 | 10.82324 | 106.66971 | 41 ft | 5 kts | 329° |
| 2026-05-07 14:17 | 10.82346 | 106.66946 | 41 ft | 4 kts | 303° |
| 2026-05-07 14:17 | 10.82352 | 106.66924 | 41 ft | 3 kts | 279° |
| 2026-05-07 14:18 | 10.82351 | 106.66912 | 41 ft | 1 kts | 259° |
| 2026-05-07 14:18 | 10.82276 | 106.66709 | 38 ft | 66 kts | 249° |
| 2026-05-07 14:18 | 10.82023 | 106.66049 | 43 ft | 132 kts | 248° |
| 2026-05-07 14:18 | 10.81620 | 106.64988 | 44 ft | 187 kts | 249° |
| 2026-05-07 14:19 | 10.81131 | 106.63705 | 625 ft | 191 kts | 247° |
| 2026-05-07 14:19 | 10.80814 | 106.62857 | 1179 ft | 191 kts | 246° |
| 2026-05-07 14:19 | 10.80318 | 106.61532 | 1625 ft | 205 kts | 246° |
| 2026-05-07 14:19 | 10.79791 | 106.60129 | 2086 ft | 222 kts | 246° |
| 2026-05-07 14:20 | 10.79218 | 106.58616 | 2652 ft | 236 kts | 246° |
| 2026-05-07 14:20 | 10.78613 | 106.57056 | 3336 ft | 245 kts | 242° |
| 2026-05-07 14:20 | 10.77414 | 106.55805 | 3998 ft | 246 kts | 203° |
| 2026-05-07 14:20 | 10.75790 | 106.55373 | 4851 ft | 245 kts | 171° |
| 2026-05-07 14:21 | 10.74184 | 106.55902 | 5631 ft | 245 kts | 145° |
| 2026-05-07 14:21 | 10.72776 | 106.56887 | 6461 ft | 245 kts | 143° |
| 2026-05-07 14:21 | 10.71407 | 106.57853 | 7196 ft | 249 kts | 143° |
| 2026-05-07 14:21 | 10.69927 | 106.58888 | 7993 ft | 253 kts | 143° |
| 2026-05-07 14:22 | 10.68483 | 106.59886 | 8696 ft | 259 kts | 143° |
| 2026-05-07 14:22 | 10.66999 | 106.60914 | 9012 ft | 259 kts | 143° |
| 2026-05-07 14:22 | 10.65533 | 106.62000 | 8999 ft | 260 kts | 131° |
| 2026-05-07 14:22 | 10.64521 | 106.63542 | 8643 ft | 269 kts | 107° |
| 2026-05-07 14:23 | 10.64380 | 106.65134 | 8780 ft | 263 kts | 81° |
| 2026-05-07 14:23 | 10.64883 | 106.66940 | 8975 ft | 279 kts | 66° |
| 2026-05-07 14:23 | 10.65679 | 106.68797 | 9044 ft | 284 kts | 66° |
| 2026-05-07 14:23 | 10.66414 | 106.70648 | 9040 ft | 282 kts | 69° |
| 2026-05-07 14:24 | 10.67096 | 106.72525 | 9056 ft | 283 kts | 69° |
| 2026-05-07 14:24 | 10.67547 | 106.73751 | 9122 ft | 284 kts | 69° |
| 2026-05-07 14:24 | 10.68471 | 106.76184 | 9880 ft | 286 kts | 68° |
| 2026-05-07 14:24 | 10.68762 | 106.76946 | 10261 ft | 286 kts | 69° |
| 2026-05-07 14:25 | 10.70785 | 106.82317 | 11051 ft | 350 kts | 69° |
| 2026-05-07 14:25 | 10.71519 | 106.84882 | 11050 ft | 365 kts | 85° |
| 2026-05-07 14:25 | 10.71536 | 106.87411 | 11211 ft | 368 kts | 90° |
| 2026-05-07 14:26 | 10.71534 | 106.89959 | 11834 ft | 372 kts | 89° |
| 2026-05-07 14:26 | 10.71750 | 106.92776 | 12703 ft | 376 kts | 75° |
| 2026-05-07 14:26 | 10.72697 | 106.95027 | 13440 ft | 381 kts | 58° |
| 2026-05-07 14:26 | 10.73910 | 106.96684 | 13951 ft | 387 kts | 51° |
| 2026-05-07 14:27 | 10.75334 | 106.98343 | 14465 ft | 391 kts | 49° |
| 2026-05-07 14:27 | 10.77172 | 107.00485 | 15154 ft | 395 kts | 52° |
| 2026-05-07 14:27 | 10.78821 | 107.02751 | 15822 ft | 398 kts | 57° |
| 2026-05-07 14:27 | 10.80391 | 107.05082 | 16494 ft | 402 kts | 56° |
| 2026-05-07 14:28 | 10.81819 | 107.07055 | 17060 ft | 406 kts | 54° |
| 2026-05-07 14:28 | 10.83368 | 107.09074 | 17627 ft | 409 kts | 53° |
| 2026-05-07 14:28 | 10.85096 | 107.11383 | 18216 ft | 413 kts | 55° |
| 2026-05-07 14:28 | 10.86795 | 107.13758 | 18747 ft | 416 kts | 55° |
| 2026-05-07 14:29 | 10.88519 | 107.16149 | 19271 ft | 420 kts | 54° |
| 2026-05-07 14:29 | 10.90284 | 107.18533 | 19774 ft | 424 kts | 54° |
| 2026-05-07 14:29 | 10.92069 | 107.20948 | 20304 ft | 427 kts | 54° |
| 2026-05-07 14:29 | 10.93839 | 107.23381 | 20797 ft | 431 kts | 54° |
| 2026-05-07 14:30 | 10.95186 | 107.25237 | 21177 ft | 434 kts | 54° |
| 2026-05-07 14:30 | 10.96868 | 107.27537 | 21625 ft | 437 kts | 54° |
| 2026-05-07 14:30 | 10.98752 | 107.30100 | 22120 ft | 441 kts | 54° |
| 2026-05-07 14:30 | 11.00574 | 107.32594 | 22617 ft | 444 kts | 54° |
| 2026-05-07 14:31 | 11.02172 | 107.34788 | 23029 ft | 447 kts | 54° |
| 2026-05-07 14:31 | 11.03807 | 107.37028 | 23434 ft | 450 kts | 54° |
| 2026-05-07 14:31 | 11.05444 | 107.39265 | 23767 ft | 453 kts | 54° |
| 2026-05-07 14:31 | 11.07098 | 107.41526 | 24102 ft | 455 kts | 54° |
| 2026-05-07 14:32 | 11.08775 | 107.43825 | 24438 ft | 458 kts | 54° |
| 2026-05-07 14:32 | 11.10448 | 107.46122 | 24778 ft | 461 kts | 54° |
| 2026-05-07 14:32 | 11.12370 | 107.48753 | 25153 ft | 463 kts | 54° |
| 2026-05-07 14:32 | 11.14242 | 107.51316 | 25513 ft | 466 kts | 54° |
| 2026-05-07 14:33 | 11.16092 | 107.53853 | 25864 ft | 469 kts | 54° |
| 2026-05-07 14:33 | 11.18115 | 107.56629 | 26241 ft | 472 kts | 54° |
| 2026-05-07 14:33 | 11.20102 | 107.59355 | 26599 ft | 475 kts | 54° |
| 2026-05-07 14:33 | 11.22065 | 107.62047 | 26958 ft | 478 kts | 54° |
| 2026-05-07 14:34 | 11.23871 | 107.64525 | 27261 ft | 480 kts | 54° |
| 2026-05-07 14:34 | 11.25873 | 107.67274 | 27607 ft | 483 kts | 54° |
| 2026-05-07 14:34 | 11.27888 | 107.70042 | 27952 ft | 486 kts | 54° |
| 2026-05-07 14:34 | 11.29910 | 107.72818 | 28300 ft | 489 kts | 54° |
| 2026-05-07 14:35 | 11.31949 | 107.75620 | 28639 ft | 492 kts | 54° |
| 2026-05-07 14:35 | 11.33990 | 107.78424 | 28967 ft | 495 kts | 54° |
| 2026-05-07 14:35 | 11.36036 | 107.81238 | 29300 ft | 498 kts | 53° |
| 2026-05-07 14:35 | 11.38117 | 107.84098 | 29640 ft | 500 kts | 53° |
| 2026-05-07 14:36 | 11.40188 | 107.86946 | 29933 ft | 503 kts | 53° |
| 2026-05-07 14:36 | 11.42309 | 107.89864 | 30199 ft | 506 kts | 53° |
| 2026-05-07 14:36 | 11.43945 | 107.92116 | 30413 ft | 508 kts | 53° |
| 2026-05-07 14:36 | 11.46088 | 107.95066 | 30676 ft | 510 kts | 53° |
| 2026-05-07 14:37 | 11.48187 | 107.97955 | 30926 ft | 513 kts | 53° |
| 2026-05-07 14:37 | 11.52361 | 108.03769 | 31415 ft | 516 kts | 58° |
| 2026-05-07 14:37 | 11.53825 | 108.06688 | 31818 ft | 513 kts | 68° |
| 2026-05-07 14:38 | 11.55081 | 108.10007 | 32160 ft | 513 kts | 70° |
| 2026-05-07 14:38 | 11.56300 | 108.13534 | 32541 ft | 512 kts | 69° |
| 2026-05-07 14:38 | 11.57634 | 108.16923 | 32920 ft | 511 kts | 66° |
| 2026-05-07 14:38 | 11.59071 | 108.20228 | 33273 ft | 511 kts | 66° |
| 2026-05-07 14:39 | 11.60412 | 108.23513 | 33630 ft | 510 kts | 68° |
| 2026-05-07 14:39 | 11.61707 | 108.26945 | 33988 ft | 510 kts | 68° |
| 2026-05-07 14:39 | 11.62486 | 108.28971 | 34173 ft | 509 kts | 67° |
| 2026-05-07 14:39 | 11.64352 | 108.33532 | 34604 ft | 508 kts | 66° |
| 2026-05-07 14:40 | 11.65589 | 108.36565 | 34861 ft | 508 kts | 67° |
| 2026-05-07 14:40 | 11.66390 | 108.38600 | 35046 ft | 508 kts | 68° |
| 2026-05-07 14:40 | 11.68979 | 108.45187 | 35109 ft | 504 kts | 66° |
| 2026-05-07 14:41 | 11.71589 | 108.51672 | 35125 ft | 505 kts | 67° |
| 2026-05-07 14:41 | 11.74209 | 108.58308 | 35116 ft | 505 kts | 67° |
| 2026-05-07 14:42 | 11.76760 | 108.64686 | 35119 ft | 504 kts | 67° |
| 2026-05-07 14:42 | 11.79246 | 108.70971 | 35118 ft | 504 kts | 67° |
| 2026-05-07 14:43 | 11.81904 | 108.77648 | 35113 ft | 504 kts | 67° |
| 2026-05-07 14:43 | 11.84378 | 108.83896 | 35108 ft | 505 kts | 67° |
| 2026-05-07 14:44 | 11.86927 | 108.90322 | 35100 ft | 505 kts | 67° |
| 2026-05-07 14:44 | 11.89530 | 108.96895 | 35088 ft | 505 kts | 67° |
| 2026-05-07 14:45 | 11.91874 | 109.02817 | 35080 ft | 505 kts | 67° |
| 2026-05-07 14:45 | 11.94520 | 109.09508 | 35077 ft | 505 kts | 67° |
| 2026-05-07 14:46 | 11.97149 | 109.16161 | 35077 ft | 505 kts | 67° |
| 2026-05-07 14:46 | 11.99501 | 109.22048 | 35085 ft | 513 kts | 62° |
| 2026-05-07 14:47 | 12.02733 | 109.28110 | 35112 ft | 522 kts | 61° |
| 2026-05-07 14:47 | 12.05640 | 109.33737 | 35103 ft | 524 kts | 60° |
| 2026-05-07 14:48 | 12.08673 | 109.39370 | 35089 ft | 524 kts | 60° |
| 2026-05-07 14:48 | 12.12094 | 109.45898 | 35075 ft | 524 kts | 60° |
| 2026-05-07 14:49 | 12.15314 | 109.51987 | 35075 ft | 525 kts | 60° |
| 2026-05-07 14:49 | 12.18619 | 109.58242 | 35074 ft | 525 kts | 60° |
| 2026-05-07 14:50 | 12.21934 | 109.64518 | 35074 ft | 525 kts | 60° |
| 2026-05-07 14:50 | 12.25386 | 109.71055 | 35071 ft | 525 kts | 60° |
| 2026-05-07 14:51 | 12.28851 | 109.77625 | 35069 ft | 525 kts | 60° |
| 2026-05-07 14:51 | 12.32211 | 109.83999 | 35068 ft | 524 kts | 60° |
| 2026-05-07 14:52 | 12.35543 | 109.90324 | 35067 ft | 523 kts | 60° |
| 2026-05-07 14:52 | 12.38992 | 109.96876 | 35067 ft | 524 kts | 60° |
| 2026-05-07 14:53 | 12.42361 | 110.03281 | 35067 ft | 523 kts | 60° |
| 2026-05-07 14:53 | 12.45764 | 110.09755 | 35067 ft | 523 kts | 60° |
| 2026-05-07 14:54 | 12.49215 | 110.16325 | 35068 ft | 524 kts | 60° |
| 2026-05-07 14:54 | 12.52658 | 110.22884 | 35069 ft | 524 kts | 60° |
| 2026-05-07 14:55 | 12.56132 | 110.29508 | 35069 ft | 525 kts | 60° |
| 2026-05-07 14:55 | 12.59567 | 110.36063 | 34890 ft | 523 kts | 60° |
| 2026-05-07 14:56 | 12.62846 | 110.42323 | 34900 ft | 525 kts | 60° |
| 2026-05-07 14:56 | 12.66290 | 110.48904 | 34904 ft | 524 kts | 60° |
| 2026-05-07 14:57 | 12.69701 | 110.55425 | 34903 ft | 525 kts | 60° |
| 2026-05-07 14:57 | 12.72881 | 110.61510 | 34903 ft | 525 kts | 60° |
| 2026-05-07 14:58 | 12.76119 | 110.67712 | 34904 ft | 524 kts | 60° |
| 2026-05-07 14:58 | 12.79510 | 110.74211 | 34901 ft | 524 kts | 60° |
| 2026-05-07 14:59 | 12.82731 | 110.80390 | 34902 ft | 524 kts | 60° |
| 2026-05-07 14:59 | 12.86101 | 110.86859 | 34905 ft | 524 kts | 60° |
| 2026-05-07 15:00 | 12.89529 | 110.93443 | 34905 ft | 524 kts | 60° |
| 2026-05-07 15:00 | 12.92961 | 111.00041 | 34905 ft | 524 kts | 60° |
| 2026-05-07 15:01 | 12.96383 | 111.06625 | 34903 ft | 523 kts | 60° |
| 2026-05-07 15:01 | 12.99726 | 111.13062 | 34907 ft | 522 kts | 60° |
| 2026-05-07 15:02 | 13.03101 | 111.19563 | 34907 ft | 521 kts | 60° |
| 2026-05-07 15:02 | 13.06490 | 111.26099 | 34905 ft | 523 kts | 60° |
| 2026-05-07 15:03 | 13.09680 | 111.32255 | 34906 ft | 523 kts | 60° |
| 2026-05-07 15:03 | 13.12986 | 111.38638 | 34908 ft | 522 kts | 60° |
| 2026-05-07 15:04 | 13.16104 | 111.44665 | 34905 ft | 521 kts | 60° |
| 2026-05-07 15:04 | 13.19523 | 111.51275 | 34894 ft | 521 kts | 60° |
| 2026-05-07 15:05 | 13.22892 | 111.57796 | 34903 ft | 523 kts | 60° |
| 2026-05-07 15:05 | 13.26340 | 111.64475 | 34908 ft | 522 kts | 60° |
| 2026-05-07 15:06 | 13.29157 | 111.69934 | 34908 ft | 522 kts | 60° |
| 2026-05-07 15:06 | 13.33078 | 111.77541 | 34908 ft | 522 kts | 60° |
| 2026-05-07 15:07 | 13.35830 | 111.82882 | 34906 ft | 522 kts | 60° |
| 2026-05-07 15:07 | 13.38577 | 111.88218 | 34904 ft | 522 kts | 60° |
| 2026-05-07 15:08 | 13.41889 | 111.94657 | 34904 ft | 521 kts | 60° |
| 2026-05-07 15:08 | 13.45277 | 112.01248 | 34908 ft | 522 kts | 60° |
| 2026-05-07 15:09 | 13.48149 | 112.06838 | 34908 ft | 522 kts | 60° |
| 2026-05-07 15:09 | 13.51505 | 112.13377 | 34908 ft | 521 kts | 60° |
| 2026-05-07 15:10 | 13.54762 | 112.19728 | 34905 ft | 520 kts | 60° |
| 2026-05-07 15:10 | 13.58009 | 112.26063 | 34908 ft | 520 kts | 60° |
| 2026-05-07 15:11 | 13.61360 | 112.32606 | 34903 ft | 520 kts | 61° |
| 2026-05-07 15:11 | 13.64581 | 112.38901 | 34906 ft | 521 kts | 60° |
| 2026-05-07 15:12 | 13.67836 | 112.45265 | 34906 ft | 522 kts | 60° |
| 2026-05-07 15:12 | 13.71100 | 112.51656 | 34908 ft | 521 kts | 60° |
| 2026-05-07 15:13 | 13.74146 | 112.57621 | 34905 ft | 521 kts | 60° |
| 2026-05-07 15:13 | 13.77248 | 112.63701 | 34908 ft | 522 kts | 60° |
| 2026-05-07 15:14 | 13.80560 | 112.70199 | 34911 ft | 522 kts | 60° |
| 2026-05-07 15:14 | 13.83942 | 112.76839 | 34910 ft | 521 kts | 60° |
| 2026-05-07 15:15 | 13.87189 | 112.83218 | 34911 ft | 521 kts | 61° |
| 2026-05-07 15:15 | 13.90461 | 112.89654 | 34906 ft | 520 kts | 60° |
| 2026-05-07 15:16 | 13.93580 | 112.95791 | 34907 ft | 520 kts | 61° |
| 2026-05-07 15:16 | 13.96674 | 113.02185 | 34911 ft | 522 kts | 70° |
| 2026-05-07 15:17 | 13.97981 | 113.09103 | 34915 ft | 526 kts | 88° |
| 2026-05-07 15:17 | 13.97975 | 113.16538 | 34916 ft | 526 kts | 88° |
| 2026-05-07 15:18 | 13.97962 | 113.23670 | 34911 ft | 526 kts | 89° |
| 2026-05-07 15:18 | 13.97936 | 113.30094 | 34905 ft | 527 kts | 88° |
| 2026-05-07 15:19 | 13.97922 | 113.37292 | 34909 ft | 526 kts | 89° |
| 2026-05-07 15:19 | 13.97892 | 113.44425 | 34906 ft | 525 kts | 88° |
| 2026-05-07 15:20 | 13.97870 | 113.51757 | 34909 ft | 532 kts | 89° |
| 2026-05-07 15:20 | 13.97837 | 113.59094 | 34903 ft | 532 kts | 89° |
| 2026-05-07 15:21 | 13.97832 | 113.60324 | 34901 ft | 532 kts | 89° |